Time;durP1;ratioP1;P1;durP2;ratioP2;P2;SDS_P1;SDS_P2;PMS_P1;PMS_P2;Temp;Humidity;BMP_temperature;BMP_pressure;BME280_temperature;BME280_humidity;BME280_pressure;Samples;Min_cycle;Max_cycle;Signal;HPM_P1;HPM_P2
2021/08/17 00:00:11;;;;;;;14.50;5.00;;;17.10;99.90;;;;;;4388778;28;658440;-67
2021/08/17 00:03:00;;;;;;;9.37;4.33;;;16.90;99.90;;;;;;4392986;28;657526;-68
2021/08/17 00:05:49;;;;;;;11.43;3.73;;;16.70;99.90;;;;;;4393878;28;656482;-68
2021/08/17 00:08:38;;;;;;;10.63;3.70;;;16.60;99.90;;;;;;4411521;28;657772;-67
2021/08/17 00:11:27;;;;;;;8.13;3.30;;;16.40;99.90;;;;;;4389084;28;657915;-67
2021/08/17 00:14:20;;;;;;;9.73;3.27;;;16.20;99.90;;;;;;4390309;28;656895;-68
2021/08/17 00:17:11;;;;;;;7.07;3.57;;;16.00;99.90;;;;;;4374809;28;656896;-69
2021/08/17 00:20:00;;;;;;;12.67;3.70;;;15.80;99.90;;;;;;4394155;28;657682;-67
2021/08/17 00:22:48;;;;;;;7.93;3.93;;;15.70;99.90;;;;;;4397599;28;657910;-68
2021/08/17 00:25:37;;;;;;;12.60;3.73;;;15.60;99.90;;;;;;4417587;28;657150;-68
2021/08/17 00:28:25;;;;;;;11.93;5.40;;;15.50;99.90;;;;;;4375332;28;657719;-68
2021/08/17 00:31:16;;;;;;;8.73;4.13;;;15.50;99.90;;;;;;4375854;28;657952;-67
2021/08/17 00:34:05;;;;;;;13.80;3.90;;;15.40;99.90;;;;;;4372789;28;658007;-67
2021/08/17 00:36:55;;;;;;;11.63;4.13;;;15.40;99.90;;;;;;4359102;28;657580;-67
2021/08/17 00:39:43;;;;;;;12.05;3.80;;;15.30;99.90;;;;;;4365918;28;657639;-67
2021/08/17 00:42:34;;;;;;;11.77;4.53;;;15.30;99.90;;;;;;4380329;28;658503;-67
2021/08/17 00:45:24;;;;;;;8.67;3.93;;;15.30;99.90;;;;;;4374671;28;657831;-67
2021/08/17 00:48:17;;;;;;;14.77;4.47;;;15.40;99.90;;;;;;4359248;28;656506;-67
2021/08/17 00:51:07;;;;;;;10.47;4.77;;;15.30;99.90;;;;;;4357867;28;657630;-67
2021/08/17 00:53:55;;;;;;;11.57;4.90;;;15.30;99.90;;;;;;4360791;28;658741;-67
2021/08/17 00:56:44;;;;;;;14.83;4.93;;;15.30;99.90;;;;;;4361982;28;657651;-67
2021/08/17 00:59:34;;;;;;;13.27;4.97;;;15.30;99.90;;;;;;4379637;28;657399;-68
2021/08/17 01:02:22;;;;;;;11.97;5.03;;;15.30;99.90;;;;;;4395409;28;657508;-68
2021/08/17 01:05:13;;;;;;;14.10;4.90;;;15.30;99.90;;;;;;4358145;28;658404;-68
2021/08/17 01:08:02;;;;;;;16.23;5.80;;;15.30;99.90;;;;;;4371472;28;658158;-68
2021/08/17 01:10:50;;;;;;;15.00;6.07;;;15.40;99.90;;;;;;4374313;28;658056;-68
2021/08/17 01:13:40;;;;;;;18.23;6.07;;;15.30;99.90;;;;;;4378104;28;657752;-68
2021/08/17 01:16:28;;;;;;;17.03;6.50;;;15.30;99.90;;;;;;4379616;28;657604;-68
2021/08/17 01:19:19;;;;;;;18.23;7.77;;;15.30;99.90;;;;;;4379459;28;658784;-67
2021/08/17 01:22:09;;;;;;;18.93;8.20;;;15.40;99.90;;;;;;4363438;28;657409;-67
2021/08/17 01:24:58;;;;;;;20.87;8.43;;;15.40;99.90;;;;;;4372923;28;657749;-67
2021/08/17 01:27:49;;;;;;;16.00;7.80;;;15.40;99.90;;;;;;4387941;28;657501;-67
2021/08/17 01:30:39;;;;;;;14.70;7.87;;;15.40;99.90;;;;;;4383448;28;657947;-67
2021/08/17 01:33:28;;;;;;;21.00;8.73;;;15.40;99.90;;;;;;4414753;28;658430;-68
2021/08/17 01:36:17;;;;;;;19.77;8.17;;;15.30;99.90;;;;;;4391970;28;659558;-68
2021/08/17 01:39:07;;;;;;;14.10;7.40;;;15.40;99.90;;;;;;4391097;28;658876;-68
2021/08/17 01:41:55;;;;;;;14.60;7.73;;;15.40;99.90;;;;;;4391176;28;658463;-68
2021/08/17 01:44:46;;;;;;;16.70;7.20;;;15.50;99.90;;;;;;4395363;28;657954;-68
2021/08/17 01:47:35;;;;;;;13.77;6.00;;;15.40;99.90;;;;;;4394819;28;657443;-68
2021/08/17 01:50:24;;;;;;;14.83;4.70;;;15.30;99.90;;;;;;4394272;28;658388;-68
2021/08/17 01:53:13;;;;;;;8.83;3.53;;;15.20;99.90;;;;;;4400855;28;657699;-68
2021/08/17 01:56:08;;;;;;;7.13;3.43;;;15.10;99.90;;;;;;4415104;28;656897;-68
2021/08/17 01:58:57;;;;;;;7.93;3.23;;;15.00;99.90;;;;;;4392331;28;656465;-68
2021/08/17 02:01:46;;;;;;;7.10;3.37;;;15.00;99.90;;;;;;4391664;28;657911;-67
2021/08/17 02:04:33;;;;;;;6.23;2.87;;;15.00;99.90;;;;;;4395969;28;656494;-68
2021/08/17 02:07:21;;;;;;;7.33;3.33;;;15.00;99.90;;;;;;4414925;28;656893;-67
2021/08/17 02:10:10;;;;;;;5.53;2.70;;;14.90;99.90;;;;;;4395765;28;656443;-67
2021/08/17 02:13:00;;;;;;;7.93;3.00;;;15.00;99.90;;;;;;4400052;28;656631;-68
2021/08/17 02:15:48;;;;;;;7.57;2.70;;;15.00;99.90;;;;;;4395799;28;656388;-68
2021/08/17 02:18:37;;;;;;;8.17;2.90;;;15.00;99.90;;;;;;4414250;28;656576;-67
2021/08/17 02:21:25;;;;;;;9.40;3.10;;;15.00;99.90;;;;;;4391315;28;657130;-67
2021/08/17 02:24:13;;;;;;;7.67;3.23;;;15.10;99.90;;;;;;4395092;28;656569;-68
2021/08/17 02:27:00;;;;;;;8.87;3.60;;;15.20;99.90;;;;;;4418098;28;657924;-68
2021/08/17 02:29:47;;;;;;;9.57;3.50;;;15.20;99.90;;;;;;4395545;28;657003;-68
2021/08/17 02:32:36;;;;;;;10.47;4.03;;;15.20;99.90;;;;;;4417237;28;657070;-67
2021/08/17 02:35:28;;;;;;;10.03;4.63;;;15.30;99.90;;;;;;4394368;28;658790;-67
2021/08/17 02:38:17;;;;;;;16.83;5.10;;;15.30;99.90;;;;;;4390599;28;659136;-67
2021/08/17 02:41:06;;;;;;;11.97;5.70;;;15.40;99.90;;;;;;4390688;28;657699;-67
2021/08/17 02:43:55;;;;;;;12.57;5.97;;;15.40;99.90;;;;;;4394207;28;658007;-67
2021/08/17 02:46:43;;;;;;;13.33;6.13;;;15.30;99.90;;;;;;4393945;28;658055;-68
2021/08/17 02:49:33;;;;;;;13.73;6.10;;;15.30;99.90;;;;;;4412444;28;658730;-67
2021/08/17 02:52:24;;;;;;;10.43;6.57;;;15.30;99.90;;;;;;4393469;28;658931;-67
2021/08/17 02:55:14;;;;;;;17.40;6.77;;;15.30;99.90;;;;;;4381283;28;657684;-68
2021/08/17 02:58:05;;;;;;;11.30;6.30;;;15.20;99.90;;;;;;4410964;28;657653;-67
2021/08/17 03:00:53;;;;;;;12.23;6.37;;;15.20;99.90;;;;;;4371346;28;657381;-68
2021/08/17 03:03:41;;;;;;;12.53;6.73;;;15.20;99.90;;;;;;4412652;28;658289;-67
2021/08/17 03:06:28;;;;;;;14.85;6.97;;;15.20;99.90;;;;;;4390004;28;658100;-67
2021/08/17 03:09:17;;;;;;;16.43;7.07;;;15.20;99.90;;;;;;4412605;28;657869;-67
2021/08/17 03:12:05;;;;;;;13.80;7.03;;;15.30;99.90;;;;;;4388300;28;658797;-67
2021/08/17 03:14:53;;;;;;;15.30;7.03;;;15.30;99.90;;;;;;4393180;28;657838;-68
2021/08/17 03:17:40;;;;;;;18.77;7.53;;;15.30;99.90;;;;;;4412200;28;658005;-67
2021/08/17 03:20:29;;;;;;;21.87;8.93;;;15.40;99.90;;;;;;4393634;28;657757;-68
2021/08/17 03:23:19;;;;;;;16.03;7.90;;;15.40;99.90;;;;;;4411483;28;657910;-67
2021/08/17 03:26:08;;;;;;;12.60;8.23;;;15.40;99.90;;;;;;4388962;28;657508;-67
2021/08/17 03:28:55;;;;;;;20.47;9.30;;;15.50;99.90;;;;;;4389387;28;657668;-67
2021/08/17 03:31:44;;;;;;;23.60;9.93;;;15.40;99.90;;;;;;4392478;28;658232;-67
2021/08/17 03:34:32;;;;;;;19.27;10.57;;;15.40;99.90;;;;;;4408399;28;657833;-68
2021/08/17 03:37:20;;;;;;;23.67;10.20;;;15.40;99.90;;;;;;4414991;28;659185;-66
2021/08/17 03:40:08;;;;;;;21.40;10.13;;;15.30;99.90;;;;;;4392797;28;659219;-68
2021/08/17 03:42:57;;;;;;;22.60;10.50;;;15.30;99.90;;;;;;4411199;28;659508;-67
2021/08/17 03:45:45;;;;;;;25.20;9.77;;;15.30;99.90;;;;;;4386249;28;659905;-67
2021/08/17 03:48:32;;;;;;;16.27;9.00;;;15.20;99.90;;;;;;4393286;28;657262;-68
2021/08/17 03:51:20;;;;;;;16.80;8.53;;;15.20;99.90;;;;;;4413007;28;657770;-67
2021/08/17 03:54:08;;;;;;;15.80;8.33;;;15.20;99.90;;;;;;4393077;28;657545;-68
2021/08/17 03:56:55;;;;;;;19.20;8.27;;;15.20;99.90;;;;;;4412469;28;658232;-67
2021/08/17 03:59:44;;;;;;;15.03;7.97;;;15.30;99.90;;;;;;4392796;28;657252;-67
2021/08/17 04:02:32;;;;;;;14.30;7.30;;;15.30;99.90;;;;;;4409444;28;657399;-68
2021/08/17 04:05:20;;;;;;;13.40;6.80;;;15.30;99.90;;;;;;4411737;28;658222;-67
2021/08/17 04:08:08;;;;;;;16.80;7.27;;;15.30;99.90;;;;;;4392752;28;657567;-68
2021/08/17 04:11:20;;;;;;;11.90;6.53;;;15.30;99.90;;;;;;4412005;28;658805;-67
2021/08/17 04:14:10;;;;;;;14.20;6.67;;;15.20;99.90;;;;;;4372867;28;657327;-67
2021/08/17 04:16:59;;;;;;;13.30;6.93;;;15.20;99.90;;;;;;4396521;28;657705;-68
2021/08/17 04:19:47;;;;;;;16.40;7.10;;;15.20;99.90;;;;;;4410700;28;657820;-67
2021/08/17 04:22:35;;;;;;;14.97;6.27;;;15.20;99.90;;;;;;4419498;28;657751;-66
2021/08/17 04:25:23;;;;;;;15.73;7.27;;;15.20;99.90;;;;;;4396302;28;657766;-67
2021/08/17 04:28:11;;;;;;;20.77;7.40;;;15.20;99.90;;;;;;4416450;28;658357;-67
2021/08/17 04:30:58;;;;;;;12.57;7.70;;;15.20;99.90;;;;;;4393247;28;658042;-67
2021/08/17 04:33:47;;;;;;;19.80;8.50;;;15.20;99.90;;;;;;4413721;28;658005;-67
2021/08/17 04:36:35;;;;;;;17.00;7.87;;;15.20;99.90;;;;;;4392135;28;657959;-66
2021/08/17 04:39:23;;;;;;;14.63;8.27;;;15.10;99.90;;;;;;4395006;28;657591;-67
2021/08/17 04:42:10;;;;;;;22.10;8.73;;;15.10;99.90;;;;;;4415177;28;658044;-67
2021/08/17 04:44:58;;;;;;;20.20;9.10;;;15.10;99.90;;;;;;4396778;28;657552;-67
2021/08/17 04:47:47;;;;;;;19.67;8.87;;;15.10;99.90;;;;;;4416050;28;658258;-66
2021/08/17 04:50:36;;;;;;;14.57;9.17;;;15.10;99.90;;;;;;4396201;28;658283;-67
2021/08/17 04:53:24;;;;;;;17.70;10.33;;;15.10;99.90;;;;;;4395503;28;657850;-67
2021/08/17 04:56:11;;;;;;;14.77;9.10;;;15.10;99.90;;;;;;4412824;28;658759;-66
2021/08/17 04:58:59;;;;;;;19.17;9.87;;;15.10;99.90;;;;;;4395753;28;658585;-67
2021/08/17 05:01:48;;;;;;;17.77;9.83;;;15.10;99.90;;;;;;4414325;28;658103;-67
2021/08/17 05:04:35;;;;;;;21.47;9.80;;;15.10;99.90;;;;;;4395625;28;658254;-66
2021/08/17 05:07:24;;;;;;;18.13;10.50;;;15.10;99.90;;;;;;4395994;28;657620;-66
2021/08/17 05:10:15;;;;;;;16.87;10.30;;;15.00;99.90;;;;;;4405339;28;658836;-67
2021/08/17 05:13:03;;;;;;;16.87;9.57;;;14.90;99.90;;;;;;4396343;28;658675;-67
2021/08/17 05:15:51;;;;;;;18.87;10.00;;;14.90;99.90;;;;;;4414443;28;658155;-67
2021/08/17 05:18:39;;;;;;;19.20;10.47;;;14.80;99.90;;;;;;4394567;28;658699;-66
2021/08/17 05:21:26;;;;;;;16.13;9.73;;;14.80;99.90;;;;;;4412424;28;658992;-66
2021/08/17 05:24:15;;;;;;;19.33;10.07;;;14.80;99.90;;;;;;4394934;28;657680;-67
2021/08/17 05:27:03;;;;;;;15.87;9.30;;;14.70;99.90;;;;;;4393603;28;658736;-67
2021/08/17 05:29:52;;;;;;;16.03;8.57;;;14.70;99.90;;;;;;4413839;28;658265;-67
2021/08/17 05:32:40;;;;;;;15.77;7.53;;;14.70;99.90;;;;;;4395313;28;658818;-67
2021/08/17 05:35:28;;;;;;;12.13;6.50;;;14.70;99.90;;;;;;4396474;28;658072;-67
2021/08/17 05:38:15;;;;;;;12.07;5.67;;;14.60;99.90;;;;;;4415618;28;657877;-67
2021/08/17 05:41:04;;;;;;;12.27;5.80;;;14.50;99.90;;;;;;4395488;28;657816;-67
2021/08/17 05:43:52;;;;;;;9.13;5.80;;;14.40;99.90;;;;;;4413824;28;657834;-66
2021/08/17 05:46:39;;;;;;;7.50;5.20;;;14.40;99.90;;;;;;4396223;28;657232;-66
2021/08/17 05:49:27;;;;;;;8.97;5.50;;;14.30;99.90;;;;;;4411151;28;656564;-67
2021/08/17 05:52:15;;;;;;;10.10;6.00;;;14.30;99.90;;;;;;4419437;28;656781;-67
2021/08/17 05:55:03;;;;;;;7.33;4.80;;;14.30;99.90;;;;;;4395143;28;657469;-67
2021/08/17 05:58:00;;;;;;;11.83;5.20;;;14.20;99.90;;;;;;4415243;28;657910;-66
2021/08/17 06:00:47;;;;;;;7.97;4.47;;;14.10;99.90;;;;;;4375158;28;657904;-67
2021/08/17 06:03:35;;;;;;;10.83;5.47;;;14.00;99.90;;;;;;4419074;28;657055;-67
2021/08/17 06:06:23;;;;;;;7.47;5.03;;;14.10;99.90;;;;;;4394735;28;658055;-67
2021/08/17 06:09:10;;;;;;;8.03;4.80;;;14.20;99.90;;;;;;4414315;28;657663;-66
2021/08/17 06:11:59;;;;;;;10.30;5.07;;;14.20;99.90;;;;;;4395623;28;656909;-67
2021/08/17 06:14:48;;;;;;;8.37;4.53;;;14.20;99.90;;;;;;4413407;28;658265;-66
2021/08/17 06:17:36;;;;;;;7.80;5.03;;;14.00;99.90;;;;;;4391811;28;656768;-67
2021/08/17 06:20:23;;;;;;;9.43;5.57;;;13.90;99.90;;;;;;4395377;28;656583;-67
2021/08/17 06:23:14;;;;;;;10.67;6.60;;;13.80;99.90;;;;;;4414295;28;656760;-66
2021/08/17 06:26:06;;;;;;;10.57;5.60;;;13.60;99.90;;;;;;4381298;28;657670;-67
2021/08/17 06:28:54;;;;;;;7.23;5.03;;;13.40;99.90;;;;;;4393865;28;657388;-66
2021/08/17 06:31:43;;;;;;;8.60;6.40;;;13.30;99.90;;;;;;4417669;28;656980;-66
2021/08/17 06:34:30;;;;;;;6.73;5.13;;;13.20;99.90;;;;;;4391710;28;657106;-66
2021/08/17 06:37:18;;;;;;;9.63;5.73;;;13.00;99.90;;;;;;4395177;28;656846;-67
2021/08/17 06:40:07;;;;;;;11.00;6.73;;;12.90;99.90;;;;;;4413143;28;657885;-66
2021/08/17 06:42:54;;;;;;;9.90;6.53;;;12.90;99.90;;;;;;4394141;28;658562;-67
2021/08/17 06:45:43;;;;;;;10.40;6.33;;;12.90;99.90;;;;;;4408014;28;656829;-67
2021/08/17 06:48:32;;;;;;;16.47;6.97;;;12.90;99.90;;;;;;4417168;28;658679;-66
2021/08/17 06:51:20;;;;;;;11.10;6.50;;;12.80;99.90;;;;;;4389504;28;658799;-66
2021/08/17 06:54:08;;;;;;;11.77;6.40;;;12.70;99.90;;;;;;4396640;28;657750;-67
2021/08/17 06:56:58;;;;;;;11.10;6.60;;;12.70;99.90;;;;;;4415551;28;658036;-66
2021/08/17 06:59:46;;;;;;;12.27;6.20;;;12.60;99.90;;;;;;4390457;28;657818;-66
2021/08/17 07:02:34;;;;;;;7.83;5.63;;;12.50;99.90;;;;;;4393533;28;658337;-68
2021/08/17 07:05:23;;;;;;;10.37;5.13;;;12.50;99.90;;;;;;4412954;28;656456;-68
2021/08/17 07:08:11;;;;;;;11.97;4.97;;;12.50;99.90;;;;;;4389808;28;658761;-68
2021/08/17 07:10:59;;;;;;;10.20;4.23;;;12.40;99.90;;;;;;4393566;28;657607;-68
2021/08/17 07:13:46;;;;;;;8.53;4.37;;;12.40;99.90;;;;;;4411775;28;657618;-68
2021/08/17 07:16:36;;;;;;;6.77;3.77;;;12.50;99.90;;;;;;4390717;28;658488;-68
2021/08/17 07:19:23;;;;;;;7.67;3.93;;;12.50;99.90;;;;;;4394491;28;656536;-68
2021/08/17 07:22:12;;;;;;;6.63;2.53;;;12.50;99.90;;;;;;4413581;28;656738;-68
2021/08/17 07:25:03;;;;;;;7.53;3.00;;;12.40;99.90;;;;;;4389826;28;657573;-68
2021/08/17 07:27:51;;;;;;;10.03;3.00;;;12.40;99.90;;;;;;4390536;28;658014;-68
2021/08/17 07:30:40;;;;;;;6.57;3.03;;;12.40;99.90;;;;;;4393387;28;657463;-68
2021/08/17 07:33:27;;;;;;;10.60;3.80;;;12.30;99.90;;;;;;4394656;28;656876;-69
2021/08/17 07:36:15;;;;;;;8.53;3.53;;;12.20;99.90;;;;;;4416226;28;658383;-68
2021/08/17 07:39:04;;;;;;;7.50;2.90;;;12.10;99.90;;;;;;4394609;28;656633;-69
2021/08/17 07:41:52;;;;;;;8.93;2.60;;;12.00;99.90;;;;;;4413084;28;656220;-68
2021/08/17 07:44:40;;;;;;;9.80;3.20;;;11.90;99.90;;;;;;4390290;28;657842;-68
2021/08/17 07:47:28;;;;;;;5.80;2.25;;;11.90;99.90;;;;;;4398325;28;656271;-69
2021/08/17 07:50:15;;;;;;;7.90;2.17;;;12.10;99.90;;;;;;4416240;28;657144;-68
2021/08/17 07:53:03;;;;;;;9.00;1.80;;;12.20;99.90;;;;;;4394344;28;656414;-68
2021/08/17 07:55:52;;;;;;;8.33;2.20;;;12.40;99.90;;;;;;4413235;28;656443;-68
2021/08/17 07:58:40;;;;;;;9.20;2.30;;;12.60;99.90;;;;;;4390683;28;657830;-68
2021/08/17 08:01:28;;;;;;;7.23;2.20;;;12.70;99.90;;;;;;4394296;28;656329;-69
2021/08/17 08:04:15;;;;;;;6.97;2.23;;;12.80;99.90;;;;;;4412798;28;657940;-68
2021/08/17 08:07:03;;;;;;;6.80;2.30;;;13.00;99.90;;;;;;4394100;28;656343;-69
2021/08/17 08:09:51;;;;;;;9.43;2.47;;;13.00;99.90;;;;;;4412803;28;657366;-68
2021/08/17 08:12:40;;;;;;;6.97;2.40;;;13.00;99.90;;;;;;4394044;28;656559;-68
2021/08/17 08:15:28;;;;;;;11.27;2.87;;;13.10;99.90;;;;;;4394261;28;656823;-69
2021/08/17 08:18:16;;;;;;;9.37;2.93;;;13.10;99.90;;;;;;4411604;28;657912;-68
2021/08/17 08:21:03;;;;;;;11.30;2.70;;;12.90;99.90;;;;;;4393908;28;657048;-69
2021/08/17 08:23:51;;;;;;;9.33;3.53;;;12.90;99.90;;;;;;4411939;28;658123;-68
2021/08/17 08:26:38;;;;;;;7.90;2.97;;;12.80;99.90;;;;;;4394010;28;656352;-69
2021/08/17 08:29:28;;;;;;;7.77;2.60;;;12.70;99.90;;;;;;4412674;28;656105;-68
2021/08/17 08:32:15;;;;;;;9.53;2.53;;;12.60;99.90;;;;;;4389939;28;656916;-69
2021/08/17 08:35:03;;;;;;;11.80;3.57;;;12.50;99.90;;;;;;4393897;28;656326;-69
2021/08/17 08:37:50;;;;;;;8.33;3.37;;;12.60;99.90;;;;;;4411522;28;657968;-68
2021/08/17 08:40:38;;;;;;;6.37;3.10;;;12.70;99.90;;;;;;4391012;28;656537;-69
2021/08/17 08:43:26;;;;;;;9.33;3.53;;;12.90;99.90;;;;;;4412750;28;656951;-69
2021/08/17 08:46:16;;;;;;;5.70;2.30;;;12.90;99.90;;;;;;4393732;28;656597;-69
2021/08/17 08:49:04;;;;;;;7.32;3.10;;;13.20;99.90;;;;;;4394071;28;656710;-68
2021/08/17 08:51:52;;;;;;;8.87;2.60;;;13.40;99.90;;;;;;4412051;28;656919;-69
2021/08/17 08:54:39;;;;;;;9.70;2.70;;;13.60;99.90;;;;;;4389586;28;657930;-69
2021/08/17 08:57:27;;;;;;;7.97;2.37;;;13.80;99.90;;;;;;4410777;28;656441;-69
2021/08/17 09:00:16;;;;;;;9.17;2.30;;;14.00;99.90;;;;;;4419595;28;656682;-68
2021/08/17 09:03:05;;;;;;;8.27;2.40;;;14.20;99.90;;;;;;4397146;28;656731;-68
2021/08/17 09:05:53;;;;;;;5.53;1.80;;;14.10;99.90;;;;;;4397119;28;656471;-67
2021/08/17 09:08:41;;;;;;;6.87;2.50;;;14.40;99.90;;;;;;4415935;28;656978;-67
2021/08/17 09:11:28;;;;;;;4.07;1.80;;;14.60;99.90;;;;;;4397010;28;656914;-67
2021/08/17 09:14:17;;;;;;;6.77;2.10;;;14.80;99.90;;;;;;4419205;28;656670;-66
2021/08/17 09:17:06;;;;;;;8.60;2.50;;;14.80;99.90;;;;;;4392773;28;656552;-66
2021/08/17 09:19:55;;;;;;;9.33;2.73;;;14.80;99.90;;;;;;4392557;28;657614;-66
2021/08/17 09:22:43;;;;;;;11.75;2.63;;;14.90;99.90;;;;;;4393571;28;656782;-67
2021/08/17 09:25:34;;;;;;;6.97;2.63;;;15.00;99.90;;;;;;4413870;28;657615;-67
2021/08/17 09:28:30;;;;;;;10.83;2.20;;;15.50;99.90;;;;;;4392683;28;657012;-67
2021/08/17 09:31:32;;;;;;;8.30;2.40;;;16.20;99.90;;;;;;4372712;28;657850;-67
2021/08/17 09:34:21;;;;;;;8.77;2.30;;;16.50;99.90;;;;;;4392589;28;657332;-66
2021/08/17 09:37:11;;;;;;;8.10;2.53;;;16.20;99.90;;;;;;4392668;28;658281;-67
2021/08/17 09:40:00;;;;;;;9.73;2.40;;;15.90;99.90;;;;;;4392708;28;658273;-66
2021/08/17 09:42:48;;;;;;;5.50;1.67;;;15.60;99.90;;;;;;4396725;28;656869;-67
2021/08/17 09:45:35;;;;;;;6.37;2.50;;;15.50;99.90;;;;;;4414783;28;657876;-67
2021/08/17 09:48:30;;;;;;;6.37;2.60;;;15.60;99.90;;;;;;4392972;28;656727;-67
2021/08/17 09:51:32;;;;;;;6.93;2.70;;;15.70;99.90;;;;;;4373542;28;656583;-68
2021/08/17 09:54:22;;;;;;;4.87;2.33;;;15.50;99.90;;;;;;4396587;28;656783;-67
2021/08/17 09:57:10;;;;;;;8.03;2.70;;;15.60;99.90;;;;;;4395688;28;656853;-66
2021/08/17 09:59:57;;;;;;;8.83;3.07;;;15.50;99.90;;;;;;4396953;28;656368;-68
2021/08/17 10:02:46;;;;;;;6.67;2.67;;;15.40;99.90;;;;;;4419125;28;657080;-66
2021/08/17 10:05:33;;;;;;;9.07;2.73;;;15.30;99.90;;;;;;4394693;28;656799;-67
2021/08/17 10:08:22;;;;;;;10.17;3.10;;;15.00;99.90;;;;;;4417147;28;656310;-66
2021/08/17 10:11:12;;;;;;;4.93;2.47;;;14.90;99.90;;;;;;4390604;28;658485;-66
2021/08/17 10:13:59;;;;;;;4.77;2.30;;;15.10;99.90;;;;;;4395618;28;657464;-67
2021/08/17 10:16:48;;;;;;;9.53;2.90;;;15.30;99.90;;;;;;4407203;28;656935;-67
2021/08/17 10:19:35;;;;;;;6.80;2.30;;;15.30;99.90;;;;;;4417634;28;657368;-67
2021/08/17 10:22:23;;;;;;;9.60;2.60;;;15.40;99.90;;;;;;4395604;28;656600;-67
2021/08/17 10:25:17;;;;;;;9.10;2.73;;;15.40;99.90;;;;;;4414005;28;657539;-67
2021/08/17 10:28:22;;;;;;;6.82;2.53;;;15.40;99.90;;;;;;4350765;28;657629;-67
2021/08/17 10:31:24;;;;;;;7.37;2.60;;;15.50;99.90;;;;;;4353693;28;656824;-67
2021/08/17 10:34:12;;;;;;;6.23;2.87;;;15.80;99.90;;;;;;4373903;28;656505;-66
2021/08/17 10:36:59;;;;;;;6.03;2.23;;;15.90;99.90;;;;;;4377478;28;656626;-66
2021/08/17 10:39:47;;;;;;;5.60;2.40;;;16.30;99.90;;;;;;4379469;28;656753;-68
2021/08/17 10:42:35;;;;;;;3.37;2.10;;;16.20;99.90;;;;;;4400618;28;657099;-67
2021/08/17 10:45:28;;;;;;;4.13;2.00;;;16.10;99.90;;;;;;4377657;28;656902;-68
2021/08/17 10:48:27;;;;;;;5.23;2.20;;;16.10;99.90;;;;;;4373667;28;657606;-67
2021/08/17 10:51:53;;;;;;;4.20;1.93;;;16.10;99.90;;;;;;4350213;28;657205;-67
2021/08/17 10:54:41;;;;;;;3.73;1.80;;;16.10;99.90;;;;;;4372880;28;657211;-67
2021/08/17 10:57:28;;;;;;;2.40;1.80;;;15.80;99.90;;;;;;4377771;28;656750;-67
2021/08/17 11:00:43;;;;;;;2.87;1.60;;;15.60;99.90;;;;;;4396062;28;656934;-67
2021/08/17 11:03:45;;;;;;;4.70;2.00;;;15.50;99.90;;;;;;4373126;28;657432;-67
2021/08/17 11:06:37;;;;;;;5.00;1.87;;;15.70;99.90;;;;;;4358922;28;656718;-68
2021/08/17 11:09:28;;;;;;;4.10;1.63;;;15.70;99.90;;;;;;4374281;28;657851;-67
2021/08/17 11:12:16;;;;;;;5.73;2.00;;;15.90;99.90;;;;;;4373443;28;657511;-67
2021/08/17 11:15:10;;;;;;;6.57;1.90;;;16.60;99.90;;;;;;4370890;28;657069;-67
2021/08/17 11:18:07;;;;;;;4.03;1.87;;;17.40;99.90;;;;;;4354282;28;656772;-67
2021/08/17 11:21:01;;;;;;;3.00;1.83;;;17.40;99.90;;;;;;4350022;28;657252;-67
2021/08/17 11:24:02;;;;;;;6.20;2.37;;;17.10;99.90;;;;;;4349775;28;657101;-67
2021/08/17 11:26:57;;;;;;;6.57;2.57;;;16.70;99.90;;;;;;4351659;28;656696;-67
2021/08/17 11:29:46;;;;;;;5.90;2.87;;;16.30;99.90;;;;;;4391007;28;656923;-67
2021/08/17 11:32:40;;;;;;;5.37;2.67;;;16.00;99.90;;;;;;4391015;28;657693;-66
2021/08/17 11:35:31;;;;;;;5.87;2.70;;;15.90;99.90;;;;;;4393387;28;656191;-66
2021/08/17 11:38:23;;;;;;;4.57;2.80;;;16.10;99.90;;;;;;4394335;28;656855;-67
2021/08/17 11:41:30;;;;;;;5.67;2.37;;;16.10;99.90;;;;;;4389421;28;656589;-67
2021/08/17 11:44:28;;;;;;;4.23;2.40;;;16.20;99.90;;;;;;4393411;28;656393;-67
2021/08/17 11:47:20;;;;;;;3.90;2.10;;;16.10;99.90;;;;;;4390353;28;656410;-67
2021/08/17 11:50:10;;;;;;;5.77;2.10;;;16.00;99.90;;;;;;4394724;28;656461;-67
2021/08/17 11:52:59;;;;;;;5.53;2.13;;;15.90;99.90;;;;;;4399280;28;656722;-67
2021/08/17 11:55:47;;;;;;;5.72;2.42;;;16.00;99.90;;;;;;4412382;28;656320;-67
2021/08/17 11:58:34;;;;;;;3.53;2.10;;;16.10;99.90;;;;;;4390323;28;656538;-67
2021/08/17 12:01:26;;;;;;;4.40;2.00;;;16.20;99.90;;;;;;4407270;28;656626;-68
2021/08/17 12:04:14;;;;;;;6.43;2.10;;;16.40;99.90;;;;;;4391612;28;657016;-66
2021/08/17 12:07:11;;;;;;;9.10;2.23;;;16.40;99.90;;;;;;4413337;28;656441;-67
2021/08/17 12:10:05;;;;;;;2.50;1.63;;;16.50;99.90;;;;;;4394438;28;656511;-66
2021/08/17 12:13:00;;;;;;;4.80;1.73;;;16.50;99.90;;;;;;4375187;28;656861;-67
2021/08/17 12:15:48;;;;;;;2.67;2.00;;;16.50;99.90;;;;;;4371340;28;657167;-67
2021/08/17 12:18:37;;;;;;;3.70;2.10;;;16.30;99.90;;;;;;4412908;28;656868;-67
2021/08/17 12:21:25;;;;;;;5.87;2.10;;;16.30;99.90;;;;;;4393716;28;656810;-67
2021/08/17 12:24:21;;;;;;;5.83;2.23;;;16.20;99.90;;;;;;4392796;28;656834;-69
2021/08/17 12:27:09;;;;;;;2.80;2.00;;;16.20;99.90;;;;;;4393934;28;656410;-67
2021/08/17 12:29:57;;;;;;;3.93;2.20;;;16.10;99.90;;;;;;4412333;28;657229;-66
2021/08/17 12:32:53;;;;;;;3.37;2.30;;;16.20;99.90;;;;;;4390073;28;657394;-67
2021/08/17 12:35:42;;;;;;;7.10;2.70;;;16.30;99.90;;;;;;4393662;28;657382;-67
2021/08/17 12:38:37;;;;;;;4.27;2.17;;;16.50;99.90;;;;;;4397288;28;657119;-67
2021/08/17 12:41:31;;;;;;;4.13;2.40;;;17.00;99.90;;;;;;4370756;28;656892;-67
2021/08/17 12:44:21;;;;;;;6.30;2.50;;;17.20;99.90;;;;;;4370645;28;656841;-67
2021/08/17 12:47:15;;;;;;;3.23;2.03;;;17.40;99.90;;;;;;4396075;28;656465;-67
2021/08/17 12:50:04;;;;;;;6.43;1.97;;;17.70;99.90;;;;;;4370402;28;656521;-68
2021/08/17 12:52:54;;;;;;;4.17;1.80;;;18.00;99.90;;;;;;4405337;28;657136;-68
2021/08/17 12:55:41;;;;;;;4.50;1.90;;;17.80;99.90;;;;;;4416140;28;657182;-67
2021/08/17 12:58:29;;;;;;;3.57;1.90;;;17.90;99.90;;;;;;4393050;28;657671;-67
2021/08/17 13:01:17;;;;;;;2.67;1.70;;;17.90;99.90;;;;;;4415162;28;657346;-67
2021/08/17 13:04:05;;;;;;;3.77;1.33;;;18.30;99.90;;;;;;4392647;28;657673;-67
2021/08/17 13:06:53;;;;;;;4.70;1.70;;;18.20;99.90;;;;;;4396950;28;656632;-68
2021/08/17 13:09:42;;;;;;;4.13;1.70;;;17.90;99.90;;;;;;4418209;28;656667;-66
2021/08/17 13:12:29;;;;;;;3.90;1.70;;;17.80;99.90;;;;;;4396943;28;657371;-67
2021/08/17 13:15:19;;;;;;;3.92;1.77;;;17.90;99.90;;;;;;4400848;28;656954;-68
2021/08/17 13:18:06;;;;;;;4.97;1.80;;;17.70;99.90;;;;;;4412864;28;656946;-67
2021/08/17 13:20:54;;;;;;;2.87;1.97;;;17.40;99.90;;;;;;4396841;28;656334;-67
2021/08/17 13:23:43;;;;;;;2.63;1.67;;;17.40;99.90;;;;;;4414871;28;657181;-67
2021/08/17 13:26:32;;;;;;;2.77;1.60;;;17.30;99.90;;;;;;4392327;28;657312;-67
2021/08/17 13:29:22;;;;;;;5.20;2.00;;;17.10;99.90;;;;;;4396654;28;658192;-67
2021/08/17 13:32:13;;;;;;;2.80;1.50;;;16.80;99.90;;;;;;4392916;28;657371;-67
2021/08/17 13:35:00;;;;;;;4.87;2.10;;;16.70;99.90;;;;;;4392267;28;657368;-67
2021/08/17 13:37:48;;;;;;;3.37;1.73;;;16.60;99.90;;;;;;4396267;28;656312;-66
2021/08/17 13:40:36;;;;;;;5.67;1.83;;;16.60;99.90;;;;;;4415459;28;657213;-67
2021/08/17 13:43:26;;;;;;;6.53;1.83;;;16.80;99.90;;;;;;4396925;28;656751;-67
2021/08/17 13:46:13;;;;;;;3.83;2.07;;;16.80;99.90;;;;;;4394976;28;656590;-67
2021/08/17 13:49:01;;;;;;;2.10;1.63;;;16.90;99.90;;;;;;4414672;28;657391;-67
2021/08/17 13:51:48;;;;;;;4.17;1.90;;;16.90;99.90;;;;;;4395688;28;656650;-67
2021/08/17 13:54:36;;;;;;;4.33;1.90;;;16.90;99.90;;;;;;4414767;28;657028;-67
2021/08/17 13:57:24;;;;;;;2.37;1.70;;;17.00;99.90;;;;;;4396051;28;656698;-67
2021/08/17 14:00:14;;;;;;;4.40;1.73;;;17.00;99.90;;;;;;4414751;28;656992;-67
2021/08/17 14:03:01;;;;;;;3.67;1.63;;;17.10;99.90;;;;;;4392189;28;656780;-67
2021/08/17 14:05:51;;;;;;;4.90;1.80;;;17.10;99.90;;;;;;4396198;28;656409;-67
2021/08/17 14:08:39;;;;;;;3.97;2.00;;;17.20;99.90;;;;;;4395704;28;656552;-67
2021/08/17 14:11:26;;;;;;;3.47;1.70;;;17.50;99.90;;;;;;4415415;28;656351;-67
2021/08/17 14:14:14;;;;;;;5.03;2.03;;;17.90;99.90;;;;;;4396566;28;657114;-67
2021/08/17 14:17:04;;;;;;;5.37;2.13;;;18.00;99.90;;;;;;4414707;28;656314;-67
2021/08/17 14:19:52;;;;;;;4.60;2.40;;;18.00;99.90;;;;;;4414067;28;656320;-67
2021/08/17 14:22:40;;;;;;;4.03;2.40;;;17.70;99.90;;;;;;4418850;28;657372;-67
2021/08/17 14:25:28;;;;;;;4.30;2.60;;;18.00;99.90;;;;;;4395522;28;656399;-67